sensor_id;sensor_type;location;lat;lon;timestamp;temperature;humidity
21481;DHT22;10902;48.158;8.634;2023-07-22T00:00:40;11.20;99.90
21481;DHT22;10902;48.158;8.634;2023-07-22T00:03:26;11.20;99.90
21481;DHT22;10902;48.158;8.634;2023-07-22T00:06:11;11.20;99.90
21481;DHT22;10902;48.158;8.634;2023-07-22T00:08:57;11.20;99.90
21481;DHT22;10902;48.158;8.634;2023-07-22T00:11:43;11.10;99.90
21481;DHT22;10902;48.158;8.634;2023-07-22T00:14:28;11.00;99.90
21481;DHT22;10902;48.158;8.634;2023-07-22T00:17:14;10.80;99.90
21481;DHT22;10902;48.158;8.634;2023-07-22T00:19:59;10.70;99.90
21481;DHT22;10902;48.158;8.634;2023-07-22T00:22:45;10.80;99.90
21481;DHT22;10902;48.158;8.634;2023-07-22T00:25:31;11.00;99.90
21481;DHT22;10902;48.158;8.634;2023-07-22T00:28:16;11.00;99.90
21481;DHT22;10902;48.158;8.634;2023-07-22T00:31:03;11.10;99.90
21481;DHT22;10902;48.158;8.634;2023-07-22T00:33:49;11.00;99.90
21481;DHT22;10902;48.158;8.634;2023-07-22T00:36:35;10.90;99.90
21481;DHT22;10902;48.158;8.634;2023-07-22T00:39:20;10.90;99.90
21481;DHT22;10902;48.158;8.634;2023-07-22T00:42:06;10.80;99.90
21481;DHT22;10902;48.158;8.634;2023-07-22T00:44:53;10.80;99.90
21481;DHT22;10902;48.158;8.634;2023-07-22T00:47:39;10.80;99.90
21481;DHT22;10902;48.158;8.634;2023-07-22T00:50:25;10.80;99.90
21481;DHT22;10902;48.158;8.634;2023-07-22T00:53:11;10.80;99.90
21481;DHT22;10902;48.158;8.634;2023-07-22T00:55:57;10.90;99.90
21481;DHT22;10902;48.158;8.634;2023-07-22T00:58:42;10.90;99.90
21481;DHT22;10902;48.158;8.634;2023-07-22T01:01:28;10.90;99.90
21481;DHT22;10902;48.158;8.634;2023-07-22T01:04:15;10.90;99.90
21481;DHT22;10902;48.158;8.634;2023-07-22T01:07:01;10.90;99.90
21481;DHT22;10902;48.158;8.634;2023-07-22T01:09:56;10.70;99.90
21481;DHT22;10902;48.158;8.634;2023-07-22T01:12:43;10.50;99.90
21481;DHT22;10902;48.158;8.634;2023-07-22T01:15:30;10.40;99.90
21481;DHT22;10902;48.158;8.634;2023-07-22T01:18:16;10.30;99.90
21481;DHT22;10902;48.158;8.634;2023-07-22T01:21:02;10.50;99.90
21481;DHT22;10902;48.158;8.634;2023-07-22T01:23:49;10.50;99.90
21481;DHT22;10902;48.158;8.634;2023-07-22T01:26:34;10.40;99.90
21481;DHT22;10902;48.158;8.634;2023-07-22T01:29:21;10.20;99.90
21481;DHT22;10902;48.158;8.634;2023-07-22T01:32:07;10.20;99.90
21481;DHT22;10902;48.158;8.634;2023-07-22T01:34:53;10.00;99.90
21481;DHT22;10902;48.158;8.634;2023-07-22T01:37:38;10.00;99.90
21481;DHT22;10902;48.158;8.634;2023-07-22T01:40:25;10.00;99.90
21481;DHT22;10902;48.158;8.634;2023-07-22T01:43:10;10.00;99.90
21481;DHT22;10902;48.158;8.634;2023-07-22T01:45:56;10.00;99.90
21481;DHT22;10902;48.158;8.634;2023-07-22T01:48:42;9.90;99.90
21481;DHT22;10902;48.158;8.634;2023-07-22T01:51:28;10.00;99.90
21481;DHT22;10902;48.158;8.634;2023-07-22T01:54:13;10.00;99.90
21481;DHT22;10902;48.158;8.634;2023-07-22T01:56:59;9.90;99.90
21481;DHT22;10902;48.158;8.634;2023-07-22T01:59:44;10.10;99.90
21481;DHT22;10902;48.158;8.634;2023-07-22T02:02:30;10.20;99.90
21481;DHT22;10902;48.158;8.634;2023-07-22T02:05:16;10.20;99.90
21481;DHT22;10902;48.158;8.634;2023-07-22T02:08:01;10.20;99.90
21481;DHT22;10902;48.158;8.634;2023-07-22T02:10:47;10.00;99.90
21481;DHT22;10902;48.158;8.634;2023-07-22T02:13:34;10.00;99.90
21481;DHT22;10902;48.158;8.634;2023-07-22T02:16:19;9.90;99.90
21481;DHT22;10902;48.158;8.634;2023-07-22T02:19:05;9.70;99.90
21481;DHT22;10902;48.158;8.634;2023-07-22T02:21:51;9.60;99.90
21481;DHT22;10902;48.158;8.634;2023-07-22T02:24:36;9.60;99.90
21481;DHT22;10902;48.158;8.634;2023-07-22T02:27:22;9.80;99.90
21481;DHT22;10902;48.158;8.634;2023-07-22T02:30:08;9.70;99.90
21481;DHT22;10902;48.158;8.634;2023-07-22T02:32:55;9.60;99.90
21481;DHT22;10902;48.158;8.634;2023-07-22T02:35:41;9.80;99.90
21481;DHT22;10902;48.158;8.634;2023-07-22T02:38:27;9.90;99.90
21481;DHT22;10902;48.158;8.634;2023-07-22T02:41:13;9.80;99.90
21481;DHT22;10902;48.158;8.634;2023-07-22T02:43:58;9.80;99.90
21481;DHT22;10902;48.158;8.634;2023-07-22T02:46:44;9.80;99.90
21481;DHT22;10902;48.158;8.634;2023-07-22T02:49:29;9.90;99.90
21481;DHT22;10902;48.158;8.634;2023-07-22T02:52:15;9.90;99.90
21481;DHT22;10902;48.158;8.634;2023-07-22T02:55:06;10.00;99.90
21481;DHT22;10902;48.158;8.634;2023-07-22T02:57:52;10.00;99.90
21481;DHT22;10902;48.158;8.634;2023-07-22T03:00:38;9.90;99.90
21481;DHT22;10902;48.158;8.634;2023-07-22T03:03:23;9.90;99.90
21481;DHT22;10902;48.158;8.634;2023-07-22T03:06:09;9.90;99.90
21481;DHT22;10902;48.158;8.634;2023-07-22T03:08:55;9.80;99.90
21481;DHT22;10902;48.158;8.634;2023-07-22T03:11:40;9.70;99.90
21481;DHT22;10902;48.158;8.634;2023-07-22T03:14:26;9.60;99.90
21481;DHT22;10902;48.158;8.634;2023-07-22T03:17:11;9.40;99.90
21481;DHT22;10902;48.158;8.634;2023-07-22T03:20:03;9.20;99.90
21481;DHT22;10902;48.158;8.634;2023-07-22T03:22:54;9.00;99.90
21481;DHT22;10902;48.158;8.634;2023-07-22T03:25:39;8.90;99.90
21481;DHT22;10902;48.158;8.634;2023-07-22T03:28:26;9.10;99.90
21481;DHT22;10902;48.158;8.634;2023-07-22T03:31:12;9.10;99.90
21481;DHT22;10902;48.158;8.634;2023-07-22T03:33:57;9.10;99.90
21481;DHT22;10902;48.158;8.634;2023-07-22T03:36:43;8.90;99.90
21481;DHT22;10902;48.158;8.634;2023-07-22T03:39:29;8.80;99.90
21481;DHT22;10902;48.158;8.634;2023-07-22T03:42:14;8.70;99.90
21481;DHT22;10902;48.158;8.634;2023-07-22T03:45:00;8.60;99.90
21481;DHT22;10902;48.158;8.634;2023-07-22T03:47:49;8.80;99.90
21481;DHT22;10902;48.158;8.634;2023-07-22T03:50:35;8.80;99.90
21481;DHT22;10902;48.158;8.634;2023-07-22T03:53:21;8.70;99.90
21481;DHT22;10902;48.158;8.634;2023-07-22T03:56:06;8.70;99.90
21481;DHT22;10902;48.158;8.634;2023-07-22T03:58:52;8.70;99.90
21481;DHT22;10902;48.158;8.634;2023-07-22T04:01:38;8.50;99.90
21481;DHT22;10902;48.158;8.634;2023-07-22T04:04:23;8.40;99.90
21481;DHT22;10902;48.158;8.634;2023-07-22T04:07:09;8.40;99.90
21481;DHT22;10902;48.158;8.634;2023-07-22T04:09:55;8.70;99.90
21481;DHT22;10902;48.158;8.634;2023-07-22T04:12:40;8.70;99.90
21481;DHT22;10902;48.158;8.634;2023-07-22T04:15:26;8.70;99.90
21481;DHT22;10902;48.158;8.634;2023-07-22T04:18:11;9.00;99.90
21481;DHT22;10902;48.158;8.634;2023-07-22T04:20:57;9.00;99.90
21481;DHT22;10902;48.158;8.634;2023-07-22T04:23:42;9.10;99.90
21481;DHT22;10902;48.158;8.634;2023-07-22T04:26:28;9.10;99.90
21481;DHT22;10902;48.158;8.634;2023-07-22T04:29:14;9.10;99.90
21481;DHT22;10902;48.158;8.634;2023-07-22T04:32:01;9.10;99.90
21481;DHT22;10902;48.158;8.634;2023-07-22T04:34:46;9.00;99.90
21481;DHT22;10902;48.158;8.634;2023-07-22T04:37:32;9.10;99.90
21481;DHT22;10902;48.158;8.634;2023-07-22T04:40:19;9.00;99.90
21481;DHT22;10902;48.158;8.634;2023-07-22T04:43:04;9.00;99.90
21481;DHT22;10902;48.158;8.634;2023-07-22T04:45:50;9.10;99.90
21481;DHT22;10902;48.158;8.634;2023-07-22T04:48:35;9.10;99.90
21481;DHT22;10902;48.158;8.634;2023-07-22T04:51:22;9.20;99.90
21481;DHT22;10902;48.158;8.634;2023-07-22T04:54:08;9.40;99.90
21481;DHT22;10902;48.158;8.634;2023-07-22T04:56:53;9.40;99.90
21481;DHT22;10902;48.158;8.634;2023-07-22T04:59:39;9.40;99.90
21481;DHT22;10902;48.158;8.634;2023-07-22T05:02:24;9.40;99.90
21481;DHT22;10902;48.158;8.634;2023-07-22T05:05:10;9.40;99.90
21481;DHT22;10902;48.158;8.634;2023-07-22T05:07:55;9.40;99.90
21481;DHT22;10902;48.158;8.634;2023-07-22T05:10:42;9.60;99.90
21481;DHT22;10902;48.158;8.634;2023-07-22T05:13:27;9.80;99.90
21481;DHT22;10902;48.158;8.634;2023-07-22T05:16:13;9.90;99.90
21481;DHT22;10902;48.158;8.634;2023-07-22T05:18:58;9.90;99.90
21481;DHT22;10902;48.158;8.634;2023-07-22T05:21:44;10.00;99.90
21481;DHT22;10902;48.158;8.634;2023-07-22T05:24:30;10.20;99.90
21481;DHT22;10902;48.158;8.634;2023-07-22T05:27:17;10.30;99.90
21481;DHT22;10902;48.158;8.634;2023-07-22T05:30:03;10.50;99.90
21481;DHT22;10902;48.158;8.634;2023-07-22T05:32:52;10.70;99.90
21481;DHT22;10902;48.158;8.634;2023-07-22T05:35:38;10.90;99.90
21481;DHT22;10902;48.158;8.634;2023-07-22T05:38:23;11.10;99.90
21481;DHT22;10902;48.158;8.634;2023-07-22T05:41:09;11.20;99.90
21481;DHT22;10902;48.158;8.634;2023-07-22T05:43:54;11.30;99.90
21481;DHT22;10902;48.158;8.634;2023-07-22T05:46:40;11.30;99.90
21481;DHT22;10902;48.158;8.634;2023-07-22T05:49:26;11.40;99.90
21481;DHT22;10902;48.158;8.634;2023-07-22T05:52:11;11.60;99.90
21481;DHT22;10902;48.158;8.634;2023-07-22T05:54:57;11.70;99.90
21481;DHT22;10902;48.158;8.634;2023-07-22T05:57:42;11.70;99.90
21481;DHT22;10902;48.158;8.634;2023-07-22T06:00:28;11.80;99.90
21481;DHT22;10902;48.158;8.634;2023-07-22T06:03:14;11.90;99.90
21481;DHT22;10902;48.158;8.634;2023-07-22T06:06:00;12.00;99.90
21481;DHT22;10902;48.158;8.634;2023-07-22T06:08:45;12.20;99.90
21481;DHT22;10902;48.158;8.634;2023-07-22T06:11:31;12.30;99.90
21481;DHT22;10902;48.158;8.634;2023-07-22T06:14:16;12.40;99.90
21481;DHT22;10902;48.158;8.634;2023-07-22T06:17:02;12.60;99.90
21481;DHT22;10902;48.158;8.634;2023-07-22T06:19:48;12.80;99.90
21481;DHT22;10902;48.158;8.634;2023-07-22T06:22:34;12.90;99.90
21481;DHT22;10902;48.158;8.634;2023-07-22T06:25:19;13.00;99.90
21481;DHT22;10902;48.158;8.634;2023-07-22T06:28:05;13.10;99.90
21481;DHT22;10902;48.158;8.634;2023-07-22T06:30:51;13.30;99.90
21481;DHT22;10902;48.158;8.634;2023-07-22T06:33:37;13.50;99.90
21481;DHT22;10902;48.158;8.634;2023-07-22T06:36:22;13.60;99.90
21481;DHT22;10902;48.158;8.634;2023-07-22T06:39:08;13.70;99.90
21481;DHT22;10902;48.158;8.634;2023-07-22T06:41:54;13.90;99.90
21481;DHT22;10902;48.158;8.634;2023-07-22T06:44:40;14.10;99.90
21481;DHT22;10902;48.158;8.634;2023-07-22T06:47:25;14.30;99.90
21481;DHT22;10902;48.158;8.634;2023-07-22T06:50:11;14.50;99.90
21481;DHT22;10902;48.158;8.634;2023-07-22T06:52:56;14.80;99.90
21481;DHT22;10902;48.158;8.634;2023-07-22T06:55:49;14.90;99.90
21481;DHT22;10902;48.158;8.634;2023-07-22T06:58:35;15.20;99.90
21481;DHT22;10902;48.158;8.634;2023-07-22T07:01:21;15.30;99.90
21481;DHT22;10902;48.158;8.634;2023-07-22T07:04:07;15.40;99.90
21481;DHT22;10902;48.158;8.634;2023-07-22T07:06:52;15.60;99.90
21481;DHT22;10902;48.158;8.634;2023-07-22T07:09:38;15.80;99.90
21481;DHT22;10902;48.158;8.634;2023-07-22T07:12:24;16.00;99.90
21481;DHT22;10902;48.158;8.634;2023-07-22T07:15:10;16.10;99.90
21481;DHT22;10902;48.158;8.634;2023-07-22T07:17:55;16.30;99.90
21481;DHT22;10902;48.158;8.634;2023-07-22T07:20:41;16.50;99.90
21481;DHT22;10902;48.158;8.634;2023-07-22T07:23:27;16.70;99.90
21481;DHT22;10902;48.158;8.634;2023-07-22T07:26:13;16.90;99.90
21481;DHT22;10902;48.158;8.634;2023-07-22T07:28:58;17.00;99.90
21481;DHT22;10902;48.158;8.634;2023-07-22T07:31:44;17.20;99.90
21481;DHT22;10902;48.158;8.634;2023-07-22T07:34:29;17.50;99.90
21481;DHT22;10902;48.158;8.634;2023-07-22T07:37:15;17.70;99.90
21481;DHT22;10902;48.158;8.634;2023-07-22T07:40:01;18.00;99.90
21481;DHT22;10902;48.158;8.634;2023-07-22T07:42:46;17.90;99.90
21481;DHT22;10902;48.158;8.634;2023-07-22T07:45:32;17.90;99.90
21481;DHT22;10902;48.158;8.634;2023-07-22T07:48:17;18.00;99.90
21481;DHT22;10902;48.158;8.634;2023-07-22T07:51:03;18.10;99.90
21481;DHT22;10902;48.158;8.634;2023-07-22T07:53:49;18.40;99.90
21481;DHT22;10902;48.158;8.634;2023-07-22T07:56:35;18.60;99.90
21481;DHT22;10902;48.158;8.634;2023-07-22T07:59:20;18.80;99.90
21481;DHT22;10902;48.158;8.634;2023-07-22T08:02:06;19.10;99.90
21481;DHT22;10902;48.158;8.634;2023-07-22T08:04:54;19.00;99.90
21481;DHT22;10902;48.158;8.634;2023-07-22T08:07:40;18.90;99.90
21481;DHT22;10902;48.158;8.634;2023-07-22T08:10:25;19.30;99.90
21481;DHT22;10902;48.158;8.634;2023-07-22T08:13:11;19.40;99.90
21481;DHT22;10902;48.158;8.634;2023-07-22T08:16:04;19.30;99.90
21481;DHT22;10902;48.158;8.634;2023-07-22T08:18:49;19.70;99.90
21481;DHT22;10902;48.158;8.634;2023-07-22T08:21:35;19.90;99.90
21481;DHT22;10902;48.158;8.634;2023-07-22T08:24:21;20.10;99.90
21481;DHT22;10902;48.158;8.634;2023-07-22T08:27:06;20.60;99.90
21481;DHT22;10902;48.158;8.634;2023-07-22T08:29:52;20.50;99.90
21481;DHT22;10902;48.158;8.634;2023-07-22T08:32:37;20.50;99.90
21481;DHT22;10902;48.158;8.634;2023-07-22T08:35:23;19.70;99.90
21481;DHT22;10902;48.158;8.634;2023-07-22T08:38:10;19.10;99.90
21481;DHT22;10902;48.158;8.634;2023-07-22T08:40:55;18.70;99.90
21481;DHT22;10902;48.158;8.634;2023-07-22T08:43:41;19.20;99.90
21481;DHT22;10902;48.158;8.634;2023-07-22T08:46:33;19.70;99.90
21481;DHT22;10902;48.158;8.634;2023-07-22T08:49:19;19.90;99.90
21481;DHT22;10902;48.158;8.634;2023-07-22T08:52:05;20.50;99.90
21481;DHT22;10902;48.158;8.634;2023-07-22T08:54:51;21.00;99.90
21481;DHT22;10902;48.158;8.634;2023-07-22T08:57:38;21.00;99.90
21481;DHT22;10902;48.158;8.634;2023-07-22T09:00:24;20.10;99.90
21481;DHT22;10902;48.158;8.634;2023-07-22T09:03:11;20.00;99.90
21481;DHT22;10902;48.158;8.634;2023-07-22T09:05:57;20.20;99.90
21481;DHT22;10902;48.158;8.634;2023-07-22T09:08:42;20.60;99.90
21481;DHT22;10902;48.158;8.634;2023-07-22T09:11:28;21.40;99.90
21481;DHT22;10902;48.158;8.634;2023-07-22T09:14:13;21.70;99.90
21481;DHT22;10902;48.158;8.634;2023-07-22T09:17:00;20.70;99.90
21481;DHT22;10902;48.158;8.634;2023-07-22T09:19:45;20.30;99.90
21481;DHT22;10902;48.158;8.634;2023-07-22T09:22:32;20.50;99.90
21481;DHT22;10902;48.158;8.634;2023-07-22T09:25:18;20.70;99.90
21481;DHT22;10902;48.158;8.634;2023-07-22T09:28:04;21.10;99.90
21481;DHT22;10902;48.158;8.634;2023-07-22T09:31:01;21.60;99.90
21481;DHT22;10902;48.158;8.634;2023-07-22T09:33:47;22.00;99.90
21481;DHT22;10902;48.158;8.634;2023-07-22T09:36:54;22.00;99.90
21481;DHT22;10902;48.158;8.634;2023-07-22T09:39:46;21.60;99.90
21481;DHT22;10902;48.158;8.634;2023-07-22T09:42:33;21.10;99.90
21481;DHT22;10902;48.158;8.634;2023-07-22T09:45:20;21.00;99.90
21481;DHT22;10902;48.158;8.634;2023-07-22T09:48:08;20.80;99.90
21481;DHT22;10902;48.158;8.634;2023-07-22T09:50:58;20.60;99.90
21481;DHT22;10902;48.158;8.634;2023-07-22T09:53:47;21.30;99.90
21481;DHT22;10902;48.158;8.634;2023-07-22T09:56:46;21.90;99.90
21481;DHT22;10902;48.158;8.634;2023-07-22T09:59:33;21.50;99.90
21481;DHT22;10902;48.158;8.634;2023-07-22T10:02:20;21.60;99.90
21481;DHT22;10902;48.158;8.634;2023-07-22T10:05:20;21.80;99.90
21481;DHT22;10902;48.158;8.634;2023-07-22T10:08:07;21.50;99.90
21481;DHT22;10902;48.158;8.634;2023-07-22T10:10:57;21.20;99.90
21481;DHT22;10902;48.158;8.634;2023-07-22T10:13:42;21.60;99.90
21481;DHT22;10902;48.158;8.634;2023-07-22T10:16:29;21.50;99.90
21481;DHT22;10902;48.158;8.634;2023-07-22T10:19:15;21.00;99.90
21481;DHT22;10902;48.158;8.634;2023-07-22T10:22:03;20.60;99.90
21481;DHT22;10902;48.158;8.634;2023-07-22T10:24:49;21.10;99.90
21481;DHT22;10902;48.158;8.634;2023-07-22T10:27:35;21.70;99.90
21481;DHT22;10902;48.158;8.634;2023-07-22T10:30:21;21.00;99.90
21481;DHT22;10902;48.158;8.634;2023-07-22T10:33:07;20.80;99.90
21481;DHT22;10902;48.158;8.634;2023-07-22T10:36:07;20.70;99.90
21481;DHT22;10902;48.158;8.634;2023-07-22T10:38:57;20.40;99.90
21481;DHT22;10902;48.158;8.634;2023-07-22T10:41:47;20.70;99.90
21481;DHT22;10902;48.158;8.634;2023-07-22T10:44:39;21.60;99.90
21481;DHT22;10902;48.158;8.634;2023-07-22T10:47:34;21.70;99.90
21481;DHT22;10902;48.158;8.634;2023-07-22T10:50:21;22.60;99.90
21481;DHT22;10902;48.158;8.634;2023-07-22T10:58:56;22.50;99.90
21481;DHT22;10902;48.158;8.634;2023-07-22T11:01:44;23.50;99.90
21481;DHT22;10902;48.158;8.634;2023-07-22T11:04:31;23.70;99.90
21481;DHT22;10902;48.158;8.634;2023-07-22T11:07:30;24.00;99.90
21481;DHT22;10902;48.158;8.634;2023-07-22T11:10:18;25.80;99.90
21481;DHT22;10902;48.158;8.634;2023-07-22T11:13:04;26.60;99.90
21481;DHT22;10902;48.158;8.634;2023-07-22T11:15:49;26.30;99.90
21481;DHT22;10902;48.158;8.634;2023-07-22T11:18:37;25.20;99.90
21481;DHT22;10902;48.158;8.634;2023-07-22T11:21:22;24.40;99.90
21481;DHT22;10902;48.158;8.634;2023-07-22T11:24:08;24.20;99.90
21481;DHT22;10902;48.158;8.634;2023-07-22T11:26:54;24.00;99.90
21481;DHT22;10902;48.158;8.634;2023-07-22T11:29:40;23.70;99.90
21481;DHT22;10902;48.158;8.634;2023-07-22T11:32:26;23.80;99.90
21481;DHT22;10902;48.158;8.634;2023-07-22T11:35:11;24.10;99.90
21481;DHT22;10902;48.158;8.634;2023-07-22T11:38:01;23.00;99.90
21481;DHT22;10902;48.158;8.634;2023-07-22T11:40:48;23.70;99.90
21481;DHT22;10902;48.158;8.634;2023-07-22T11:43:34;23.70;99.90
21481;DHT22;10902;48.158;8.634;2023-07-22T11:46:20;23.90;99.90
21481;DHT22;10902;48.158;8.634;2023-07-22T11:49:06;24.00;99.90
21481;DHT22;10902;48.158;8.634;2023-07-22T11:52:03;24.20;99.90
21481;DHT22;10902;48.158;8.634;2023-07-22T11:54:49;24.30;99.90
21481;DHT22;10902;48.158;8.634;2023-07-22T11:57:35;25.00;99.90
21481;DHT22;10902;48.158;8.634;2023-07-22T12:00:21;24.80;99.90
21481;DHT22;10902;48.158;8.634;2023-07-22T12:03:07;25.40;99.90
21481;DHT22;10902;48.158;8.634;2023-07-22T12:05:52;25.20;99.90
21481;DHT22;10902;48.158;8.634;2023-07-22T12:08:49;24.70;99.90
21481;DHT22;10902;48.158;8.634;2023-07-22T12:11:34;24.10;99.90
21481;DHT22;10902;48.158;8.634;2023-07-22T12:14:20;23.70;99.90
21481;DHT22;10902;48.158;8.634;2023-07-22T12:17:08;24.00;99.90
21481;DHT22;10902;48.158;8.634;2023-07-22T12:19:54;23.30;99.90
21481;DHT22;10902;48.158;8.634;2023-07-22T12:22:41;23.80;99.90
21481;DHT22;10902;48.158;8.634;2023-07-22T12:25:27;24.40;99.90
21481;DHT22;10902;48.158;8.634;2023-07-22T12:28:13;24.50;99.90
21481;DHT22;10902;48.158;8.634;2023-07-22T12:30:58;23.80;99.90
21481;DHT22;10902;48.158;8.634;2023-07-22T12:33:44;23.10;99.90
21481;DHT22;10902;48.158;8.634;2023-07-22T12:36:30;23.50;99.90
21481;DHT22;10902;48.158;8.634;2023-07-22T12:39:16;25.20;99.90
21481;DHT22;10902;48.158;8.634;2023-07-22T12:42:01;26.80;99.90
21481;DHT22;10902;48.158;8.634;2023-07-22T12:44:47;26.00;99.90
21481;DHT22;10902;48.158;8.634;2023-07-22T12:47:33;23.70;99.90
21481;DHT22;10902;48.158;8.634;2023-07-22T12:50:18;22.50;99.90
21481;DHT22;10902;48.158;8.634;2023-07-22T12:53:04;22.80;99.90
21481;DHT22;10902;48.158;8.634;2023-07-22T12:55:49;23.20;99.90
21481;DHT22;10902;48.158;8.634;2023-07-22T12:58:35;24.10;99.90
21481;DHT22;10902;48.158;8.634;2023-07-22T13:01:21;25.90;99.90
21481;DHT22;10902;48.158;8.634;2023-07-22T13:04:06;25.20;99.90
21481;DHT22;10902;48.158;8.634;2023-07-22T13:06:52;24.10;99.90
21481;DHT22;10902;48.158;8.634;2023-07-22T13:09:37;24.00;99.90
21481;DHT22;10902;48.158;8.634;2023-07-22T13:12:23;24.80;99.90
21481;DHT22;10902;48.158;8.634;2023-07-22T13:15:09;25.10;99.90
21481;DHT22;10902;48.158;8.634;2023-07-22T13:17:55;25.20;99.90
21481;DHT22;10902;48.158;8.634;2023-07-22T13:20:41;24.70;99.90
21481;DHT22;10902;48.158;8.634;2023-07-22T13:23:26;24.10;99.90
21481;DHT22;10902;48.158;8.634;2023-07-22T13:26:12;24.10;99.90
21481;DHT22;10902;48.158;8.634;2023-07-22T13:28:57;24.90;99.90
21481;DHT22;10902;48.158;8.634;2023-07-22T13:31:43;25.10;99.90
21481;DHT22;10902;48.158;8.634;2023-07-22T13:34:28;24.60;99.90
21481;DHT22;10902;48.158;8.634;2023-07-22T13:37:14;24.50;99.90
21481;DHT22;10902;48.158;8.634;2023-07-22T13:40:00;24.00;99.90
21481;DHT22;10902;48.158;8.634;2023-07-22T13:42:45;25.30;99.90
21481;DHT22;10902;48.158;8.634;2023-07-22T13:45:32;25.00;99.90
21481;DHT22;10902;48.158;8.634;2023-07-22T13:48:18;26.10;99.90
21481;DHT22;10902;48.158;8.634;2023-07-22T13:51:03;25.70;99.90
21481;DHT22;10902;48.158;8.634;2023-07-22T13:53:49;26.00;99.90
21481;DHT22;10902;48.158;8.634;2023-07-22T13:56:34;25.50;99.90
21481;DHT22;10902;48.158;8.634;2023-07-22T13:59:20;25.50;99.90
21481;DHT22;10902;48.158;8.634;2023-07-22T14:02:06;24.70;99.90
21481;DHT22;10902;48.158;8.634;2023-07-22T14:04:51;26.60;99.90
21481;DHT22;10902;48.158;8.634;2023-07-22T14:07:38;26.20;99.90
21481;DHT22;10902;48.158;8.634;2023-07-22T14:10:25;25.10;99.90
21481;DHT22;10902;48.158;8.634;2023-07-22T14:13:10;25.00;99.90
21481;DHT22;10902;48.158;8.634;2023-07-22T14:15:56;23.50;99.90
21481;DHT22;10902;48.158;8.634;2023-07-22T14:18:42;22.70;99.90
21481;DHT22;10902;48.158;8.634;2023-07-22T14:21:27;22.80;99.90
21481;DHT22;10902;48.158;8.634;2023-07-22T14:24:13;24.30;99.90
21481;DHT22;10902;48.158;8.634;2023-07-22T14:26:58;26.50;99.90
21481;DHT22;10902;48.158;8.634;2023-07-22T14:29:44;25.70;99.90
21481;DHT22;10902;48.158;8.634;2023-07-22T14:32:30;23.80;99.90
21481;DHT22;10902;48.158;8.634;2023-07-22T14:35:15;25.60;99.90
21481;DHT22;10902;48.158;8.634;2023-07-22T14:38:01;25.30;99.90
21481;DHT22;10902;48.158;8.634;2023-07-22T14:40:47;24.30;99.90
21481;DHT22;10902;48.158;8.634;2023-07-22T14:43:33;25.40;99.90
21481;DHT22;10902;48.158;8.634;2023-07-22T14:46:18;26.30;99.90
21481;DHT22;10902;48.158;8.634;2023-07-22T14:49:04;27.20;99.90
21481;DHT22;10902;48.158;8.634;2023-07-22T14:51:54;28.00;99.90
21481;DHT22;10902;48.158;8.634;2023-07-22T14:54:40;27.40;99.90
21481;DHT22;10902;48.158;8.634;2023-07-22T14:57:25;26.60;99.90
21481;DHT22;10902;48.158;8.634;2023-07-22T15:00:16;26.60;99.90
21481;DHT22;10902;48.158;8.634;2023-07-22T15:03:03;26.10;99.90
21481;DHT22;10902;48.158;8.634;2023-07-22T15:05:48;26.40;99.90
21481;DHT22;10902;48.158;8.634;2023-07-22T15:08:34;27.40;99.90
21481;DHT22;10902;48.158;8.634;2023-07-22T15:11:20;25.80;99.90
21481;DHT22;10902;48.158;8.634;2023-07-22T15:14:05;24.30;99.90
21481;DHT22;10902;48.158;8.634;2023-07-22T15:16:51;23.80;99.90
21481;DHT22;10902;48.158;8.634;2023-07-22T15:19:36;25.00;99.90
21481;DHT22;10902;48.158;8.634;2023-07-22T15:22:22;25.70;99.90
21481;DHT22;10902;48.158;8.634;2023-07-22T15:25:08;25.50;99.90
21481;DHT22;10902;48.158;8.634;2023-07-22T15:27:54;25.00;99.90
21481;DHT22;10902;48.158;8.634;2023-07-22T15:30:39;24.80;99.90
21481;DHT22;10902;48.158;8.634;2023-07-22T15:33:25;25.80;99.90
21481;DHT22;10902;48.158;8.634;2023-07-22T15:36:10;25.90;99.90
21481;DHT22;10902;48.158;8.634;2023-07-22T15:38:56;25.10;99.90
21481;DHT22;10902;48.158;8.634;2023-07-22T15:41:42;25.60;99.90
21481;DHT22;10902;48.158;8.634;2023-07-22T15:44:27;25.10;99.90
21481;DHT22;10902;48.158;8.634;2023-07-22T15:47:13;24.70;99.90
21481;DHT22;10902;48.158;8.634;2023-07-22T15:49:58;25.70;99.90
21481;DHT22;10902;48.158;8.634;2023-07-22T15:52:44;26.00;99.90
21481;DHT22;10902;48.158;8.634;2023-07-22T15:55:31;26.40;99.90
21481;DHT22;10902;48.158;8.634;2023-07-22T15:58:16;25.70;99.90
21481;DHT22;10902;48.158;8.634;2023-07-22T16:01:02;26.40;99.90
21481;DHT22;10902;48.158;8.634;2023-07-22T16:03:48;26.70;99.90
21481;DHT22;10902;48.158;8.634;2023-07-22T16:06:33;26.40;99.90
21481;DHT22;10902;48.158;8.634;2023-07-22T16:09:19;25.90;99.90
21481;DHT22;10902;48.158;8.634;2023-07-22T16:12:05;24.80;99.90
21481;DHT22;10902;48.158;8.634;2023-07-22T16:14:50;26.00;99.90
21481;DHT22;10902;48.158;8.634;2023-07-22T16:17:36;26.30;99.90
21481;DHT22;10902;48.158;8.634;2023-07-22T16:20:22;24.90;99.90
21481;DHT22;10902;48.158;8.634;2023-07-22T16:23:07;25.00;99.90
21481;DHT22;10902;48.158;8.634;2023-07-22T16:25:53;24.50;99.90
21481;DHT22;10902;48.158;8.634;2023-07-22T16:28:38;24.80;99.90
21481;DHT22;10902;48.158;8.634;2023-07-22T16:31:24;25.50;99.90
21481;DHT22;10902;48.158;8.634;2023-07-22T16:34:09;25.60;99.90
21481;DHT22;10902;48.158;8.634;2023-07-22T16:36:55;25.50;99.90
21481;DHT22;10902;48.158;8.634;2023-07-22T16:39:40;25.70;99.90
21481;DHT22;10902;48.158;8.634;2023-07-22T16:42:26;25.70;99.90
21481;DHT22;10902;48.158;8.634;2023-07-22T16:45:12;24.90;99.90
21481;DHT22;10902;48.158;8.634;2023-07-22T16:47:58;23.80;99.90
21481;DHT22;10902;48.158;8.634;2023-07-22T16:50:44;24.60;99.90
21481;DHT22;10902;48.158;8.634;2023-07-22T16:53:29;25.80;99.90
21481;DHT22;10902;48.158;8.634;2023-07-22T16:56:15;26.10;99.90
21481;DHT22;10902;48.158;8.634;2023-07-22T16:59:01;26.60;99.90
21481;DHT22;10902;48.158;8.634;2023-07-22T17:01:47;26.80;99.90
21481;DHT22;10902;48.158;8.634;2023-07-22T17:04:32;27.20;99.90
21481;DHT22;10902;48.158;8.634;2023-07-22T17:07:18;27.90;99.90
21481;DHT22;10902;48.158;8.634;2023-07-22T17:10:04;27.20;99.90
21481;DHT22;10902;48.158;8.634;2023-07-22T17:12:50;25.90;99.90
21481;DHT22;10902;48.158;8.634;2023-07-22T17:15:36;25.50;99.90
21481;DHT22;10902;48.158;8.634;2023-07-22T17:18:22;24.80;99.90
21481;DHT22;10902;48.158;8.634;2023-07-22T17:21:08;24.10;99.90
21481;DHT22;10902;48.158;8.634;2023-07-22T17:23:54;23.40;99.90
21481;DHT22;10902;48.158;8.634;2023-07-22T17:26:40;23.30;99.90
21481;DHT22;10902;48.158;8.634;2023-07-22T17:29:26;24.00;99.90
21481;DHT22;10902;48.158;8.634;2023-07-22T17:32:12;24.40;99.90
21481;DHT22;10902;48.158;8.634;2023-07-22T17:34:57;25.10;99.90
21481;DHT22;10902;48.158;8.634;2023-07-22T17:37:43;25.20;99.90